Time;durP1;ratioP1;P1;durP2;ratioP2;P2;SDS_P1;SDS_P2;PMS_P1;PMS_P2;Temp;Humidity;BMP_temperature;BMP_pressure;BME280_temperature;BME280_humidity;BME280_pressure;Samples;Min_cycle;Max_cycle;Signal;HPM_P1;HPM_P2
2022/04/28 00:00:07;;;;;;;4.53;2.70;;;4.80;99.90;;;;;;5058119;28;20025;-82
2022/04/28 00:02:33;;;;;;;;;;;4.70;99.90;;;;;;5058486;28;20032;-82
2022/04/28 00:05:00;;;;;;;3.80;2.20;;;4.60;99.90;;;;;;5058937;28;19908;-82
2022/04/28 00:07:26;;;;;;;3.58;2.38;;;4.50;99.90;;;;;;5057765;28;20056;-82
2022/04/28 00:09:51;;;;;;;3.85;2.42;;;4.50;99.90;;;;;;5057350;28;20021;-82
2022/04/28 00:12:17;;;;;;;3.35;2.10;;;4.50;99.90;;;;;;5058760;28;20443;-82
2022/04/28 00:14:43;;;;;;;3.75;2.20;;;4.50;99.90;;;;;;5058687;28;20035;-82
2022/04/28 00:17:09;;;;;;;5.32;2.30;;;4.50;99.90;;;;;;5057914;28;20025;-82
2022/04/28 00:19:36;;;;;;;3.67;1.80;;;4.50;99.90;;;;;;5057831;28;20071;-82
2022/04/28 00:22:01;;;;;;;5.93;2.55;;;4.50;99.90;;;;;;5058226;28;20021;-82
2022/04/28 00:24:27;;;;;;;4.93;3.03;;;4.40;99.90;;;;;;5058156;28;20418;-82
2022/04/28 00:26:53;;;;;;;5.47;3.33;;;4.40;99.90;;;;;;5056194;28;20025;-82
2022/04/28 00:29:18;;;;;;;4.68;2.97;;;4.40;99.90;;;;;;5057812;28;20027;-82
2022/04/28 00:31:44;;;;;;;3.97;2.05;;;4.40;99.90;;;;;;5057499;28;20029;-82
2022/04/28 00:34:10;;;;;;;3.95;2.00;;;4.40;99.90;;;;;;5057333;28;20036;-82
2022/04/28 00:36:36;;;;;;;3.03;1.98;;;4.30;99.90;;;;;;5057462;28;20552;-82
2022/04/28 00:39:02;;;;;;;4.22;2.47;;;4.30;99.90;;;;;;5057109;28;20127;-82
2022/04/28 00:41:28;;;;;;;2.97;2.03;;;4.30;99.90;;;;;;5055807;28;20055;-82
2022/04/28 00:43:54;;;;;;;3.78;2.22;;;4.30;99.90;;;;;;5055741;28;20474;-82
2022/04/28 00:46:21;;;;;;;3.80;2.40;;;4.20;99.90;;;;;;5055326;28;20028;-82
2022/04/28 00:51:34;;;;;;;4.57;2.35;;;4.20;99.90;;;;;;5057069;28;20056;-82
2022/04/28 00:54:01;;;;;;;4.15;2.30;;;4.10;99.90;;;;;;5055394;28;20029;-82
2022/04/28 00:56:27;;;;;;;3.40;2.00;;;4.10;99.90;;;;;;5054890;28;20036;-82
2022/04/28 00:58:55;;;;;;;3.83;2.22;;;4.10;99.90;;;;;;5054959;28;20053;-82
2022/04/28 01:01:21;;;;;;;2.97;1.90;;;4.10;99.90;;;;;;5056220;28;20013;-82
2022/04/28 01:03:47;;;;;;;4.43;2.10;;;4.00;99.90;;;;;;5054955;28;20064;-82
2022/04/28 01:06:14;;;;;;;4.00;2.17;;;4.10;99.90;;;;;;5056866;28;20020;-82
2022/04/28 01:08:40;;;;;;;3.80;2.42;;;4.00;99.90;;;;;;5055456;28;20021;-82
2022/04/28 01:11:07;;;;;;;3.47;2.00;;;4.00;99.90;;;;;;5055546;28;20131;-82
2022/04/28 01:13:33;;;;;;;3.15;2.03;;;4.00;99.90;;;;;;5055714;28;20028;-82
2022/04/28 01:15:59;;;;;;;3.08;2.00;;;4.00;99.90;;;;;;5055298;28;20389;-82
2022/04/28 01:18:24;;;;;;;5.45;2.03;;;3.90;99.90;;;;;;5055447;28;20029;-82
2022/04/28 01:20:50;;;;;;;2.70;1.85;;;3.90;99.90;;;;;;5053977;28;20394;-82
2022/04/28 01:23:18;;;;;;;3.67;2.40;;;3.80;99.90;;;;;;5054667;28;20029;-82
2022/04/28 01:25:44;;;;;;;4.05;2.20;;;3.80;99.90;;;;;;5053434;28;20584;-81
2022/04/28 01:28:10;;;;;;;2.78;2.00;;;3.70;99.90;;;;;;5055029;28;20033;-82
2022/04/28 01:30:37;;;;;;;3.92;2.45;;;3.70;99.90;;;;;;5053463;28;20504;-82
2022/04/28 01:33:04;;;;;;;4.25;2.47;;;3.60;99.90;;;;;;5053695;28;20436;-82
2022/04/28 01:35:30;;;;;;;3.28;2.05;;;3.50;99.90;;;;;;5053221;28;20024;-81
2022/04/28 01:37:57;;;;;;;4.05;2.20;;;3.50;99.90;;;;;;5053002;28;20032;-81
2022/04/28 01:40:23;;;;;;;3.97;2.22;;;3.50;99.90;;;;;;5054343;28;20036;-82
2022/04/28 01:42:49;;;;;;;3.85;2.53;;;3.40;99.90;;;;;;5055028;28;20100;-81
2022/04/28 01:45:15;;;;;;;4.03;2.30;;;3.40;99.90;;;;;;5053001;28;20124;-82
2022/04/28 01:47:41;;;;;;;3.85;2.30;;;3.40;99.90;;;;;;5053174;28;20049;-81
2022/04/28 01:50:10;;;;;;;3.88;2.38;;;3.40;99.90;;;;;;5052991;28;20093;-81
2022/04/28 01:55:21;;;;;;;6.10;2.58;;;3.40;99.90;;;;;;5054561;28;20035;-81
2022/04/28 01:57:47;;;;;;;4.30;2.17;;;3.40;99.90;;;;;;5053975;28;20025;-81
2022/04/28 02:00:13;;;;;;;2.83;1.95;;;3.40;99.90;;;;;;5054381;28;20032;-81
2022/04/28 02:02:39;;;;;;;3.67;2.00;;;3.40;99.90;;;;;;5052887;28;20048;-82
2022/04/28 02:05:06;;;;;;;4.47;2.60;;;3.40;99.90;;;;;;5053928;28;20378;-81
2022/04/28 02:07:32;;;;;;;5.63;2.50;;;3.40;99.90;;;;;;5052735;28;20529;-81
2022/04/28 02:09:58;;;;;;;4.80;2.47;;;3.40;99.90;;;;;;5054182;28;20052;-81
2022/04/28 02:12:26;;;;;;;3.63;2.20;;;3.40;99.90;;;;;;5052685;28;20110;-81
2022/04/28 02:14:52;;;;;;;4.93;2.58;;;3.30;99.90;;;;;;5054089;28;20484;-81
2022/04/28 02:17:19;;;;;;;4.22;2.50;;;3.30;99.90;;;;;;5052595;28;20024;-81
2022/04/28 02:19:45;;;;;;;4.88;3.33;;;3.30;99.90;;;;;;5052476;28;20028;-81
2022/04/28 02:22:10;;;;;;;5.82;3.72;;;3.30;99.90;;;;;;5054030;28;20029;-81
2022/04/28 02:24:36;;;;;;;4.78;2.90;;;3.30;99.90;;;;;;5053719;28;20103;-81
2022/04/28 02:27:02;;;;;;;4.82;2.97;;;3.20;99.90;;;;;;5053991;28;20484;-81
2022/04/28 02:29:27;;;;;;;5.93;3.03;;;3.20;99.90;;;;;;5053972;28;20491;-81
2022/04/28 02:31:53;;;;;;;4.40;2.50;;;3.10;99.90;;;;;;5053570;28;20474;-81
2022/04/28 02:34:19;;;;;;;4.28;2.50;;;3.10;99.90;;;;;;5053737;28;20060;-81
2022/04/28 02:36:45;;;;;;;4.78;2.30;;;3.10;99.90;;;;;;5055417;28;20056;-81
2022/04/28 02:39:12;;;;;;;4.90;2.63;;;3.10;99.90;;;;;;5057241;28;20033;-81
2022/04/28 02:41:38;;;;;;;3.70;2.40;;;3.10;99.90;;;;;;5053410;28;20049;-81
2022/04/28 02:44:04;;;;;;;5.03;2.80;;;3.10;99.90;;;;;;5052016;28;20059;-81
2022/04/28 02:46:31;;;;;;;3.38;2.28;;;3.00;99.90;;;;;;5053273;28;20025;-81
2022/04/28 02:48:57;;;;;;;4.93;2.83;;;3.00;99.90;;;;;;5053299;28;20040;-81
2022/04/28 02:51:22;;;;;;;5.55;2.63;;;3.00;99.90;;;;;;5053310;28;20466;-81
2022/04/28 02:53:48;;;;;;;3.75;2.42;;;3.00;99.90;;;;;;5053292;28;20032;-81
2022/04/28 02:56:14;;;;;;;4.18;2.30;;;3.00;99.90;;;;;;5053199;28;20036;-81
2022/04/28 02:58:40;;;;;;;4.18;2.58;;;2.90;99.90;;;;;;5051955;28;20025;-81
2022/04/28 03:01:05;;;;;;;5.25;2.50;;;2.90;99.90;;;;;;5052809;28;20108;-81
2022/04/28 03:03:31;;;;;;;5.25;2.55;;;2.90;99.90;;;;;;5053091;28;20091;-81
2022/04/28 03:11:26;;;;;;;4.32;2.53;;;2.80;99.90;;;;;;5057532;28;20079;-81
2022/04/28 03:13:53;;;;;;;5.97;2.90;;;2.80;99.90;;;;;;5057040;28;20028;-81
2022/04/28 03:16:18;;;;;;;7.38;3.78;;;2.80;99.90;;;;;;5056921;28;20025;-81
2022/04/28 03:18:45;;;;;;;5.18;3.00;;;2.70;99.90;;;;;;5057006;28;20036;-81
2022/04/28 03:21:13;;;;;;;7.63;4.43;;;2.70;99.90;;;;;;5055660;28;20187;-81
2022/04/28 03:23:39;;;;;;;8.73;4.90;;;2.60;99.90;;;;;;5056943;28;20036;-81
2022/04/28 03:26:05;;;;;;;11.05;6.70;;;2.60;99.90;;;;;;5056856;28;20017;-81
2022/04/28 03:28:38;;;;;;;11.00;6.28;;;2.60;99.90;;;;;;5057065;28;20059;-81
2022/04/28 03:31:04;;;;;;;8.05;4.80;;;2.60;99.90;;;;;;5055541;28;20029;-81
2022/04/28 03:33:30;;;;;;;9.05;5.07;;;2.60;99.90;;;;;;5056662;28;20025;-81
2022/04/28 03:35:56;;;;;;;9.43;5.32;;;2.50;99.90;;;;;;5056810;28;20025;-81
2022/04/28 03:38:22;;;;;;;7.40;4.85;;;2.30;99.90;;;;;;5057402;28;20017;-81
2022/04/28 03:40:47;;;;;;;7.53;4.63;;;2.20;99.90;;;;;;5059541;28;20033;-81
2022/04/28 03:43:13;;;;;;;9.63;4.47;;;2.10;99.90;;;;;;5057281;28;20025;-81
2022/04/28 03:45:39;;;;;;;7.43;4.10;;;2.10;99.90;;;;;;5057103;28;20017;-80
2022/04/28 03:48:09;;;;;;;7.53;3.70;;;2.10;99.90;;;;;;5056785;28;20390;-81
2022/04/28 03:50:36;;;;;;;8.90;4.20;;;2.20;99.90;;;;;;5056891;28;20021;-81
2022/04/28 03:53:02;;;;;;;7.22;3.80;;;2.20;99.90;;;;;;5056508;28;20096;-81
2022/04/28 03:55:27;;;;;;;10.55;5.15;;;2.30;99.90;;;;;;5056514;28;20041;-81
2022/04/28 03:57:53;;;;;;;9.00;5.25;;;2.30;99.90;;;;;;5056472;28;20020;-81
2022/04/28 04:00:19;;;;;;;12.25;5.35;;;2.30;99.90;;;;;;5056649;28;20021;-81
2022/04/28 04:02:46;;;;;;;11.32;6.20;;;2.40;99.90;;;;;;5056636;28;20021;-81
2022/04/28 04:05:13;;;;;;;12.70;6.43;;;2.30;99.90;;;;;;5056257;28;20025;-81
2022/04/28 04:07:39;;;;;;;13.40;6.75;;;2.30;99.90;;;;;;5055143;28;20040;-81
2022/04/28 04:10:07;;;;;;;14.23;6.97;;;2.30;99.90;;;;;;5054932;28;20021;-81
2022/04/28 04:12:32;;;;;;;14.32;8.15;;;2.30;99.90;;;;;;5054468;28;20511;-81
2022/04/28 04:14:58;;;;;;;14.82;8.18;;;2.40;99.90;;;;;;5055924;28;20052;-81
2022/04/28 04:17:24;;;;;;;15.00;8.27;;;2.40;99.90;;;;;;5054419;28;20091;-81
2022/04/28 04:19:50;;;;;;;14.35;7.30;;;2.40;99.90;;;;;;5055937;28;20025;-81
2022/04/28 04:22:16;;;;;;;10.80;5.75;;;2.40;99.90;;;;;;5054690;28;20036;-81
2022/04/28 04:24:42;;;;;;;59.17;19.88;;;2.50;99.90;;;;;;5056603;28;20093;-80
2022/04/28 04:27:09;;;;;;;64.35;26.88;;;2.50;99.90;;;;;;5055441;28;20467;-80
2022/04/28 04:29:36;;;;;;;72.80;29.98;;;2.50;99.90;;;;;;5056777;28;20021;-80
2022/04/28 04:32:17;;;;;;;49.65;21.77;;;2.40;99.90;;;;;;5056531;28;20071;-80
2022/04/28 04:34:44;;;;;;;;;;;2.50;99.90;;;;;;5055729;28;20110;-80
2022/04/28 04:37:09;;;;;;;12.10;6.63;;;2.40;99.90;;;;;;5056387;28;19905;-80
2022/04/28 04:39:35;;;;;;;9.30;4.95;;;2.40;99.90;;;;;;5054750;28;20032;-80
2022/04/28 04:42:01;;;;;;;6.60;3.80;;;2.40;99.90;;;;;;5054848;28;20029;-80
2022/04/28 04:44:26;;;;;;;7.25;4.30;;;2.40;99.90;;;;;;5054633;28;20112;-80
2022/04/28 04:46:52;;;;;;;6.75;4.10;;;2.40;99.90;;;;;;5054943;28;20079;-80
2022/04/28 04:49:18;;;;;;;8.35;4.32;;;2.40;99.90;;;;;;5054919;28;20492;-80
2022/04/28 04:51:44;;;;;;;6.25;3.67;;;2.40;99.90;;;;;;5057120;28;20496;-80
2022/04/28 04:54:10;;;;;;;6.80;3.67;;;2.50;99.90;;;;;;5054946;28;20470;-80
2022/04/28 04:56:36;;;;;;;6.80;4.15;;;2.50;99.90;;;;;;5054674;28;20082;-80
2022/04/28 04:59:02;;;;;;;5.05;3.05;;;2.50;99.90;;;;;;5056204;28;20454;-80
2022/04/28 05:01:29;;;;;;;9.18;4.70;;;2.60;99.90;;;;;;5056101;28;20461;-80
2022/04/28 05:03:55;;;;;;;6.53;3.67;;;2.50;99.90;;;;;;5056008;28;20075;-80
2022/04/28 05:06:20;;;;;;;6.68;4.00;;;2.50;99.90;;;;;;5056033;28;20020;-80
2022/04/28 05:08:46;;;;;;;7.03;4.43;;;2.50;99.90;;;;;;5054508;28;20050;-80
2022/04/28 05:11:12;;;;;;;8.27;4.88;;;2.60;99.90;;;;;;5055483;28;20385;-80
2022/04/28 05:13:38;;;;;;;8.00;4.72;;;2.60;99.90;;;;;;5054211;28;20021;-80
2022/04/28 05:16:04;;;;;;;7.85;3.90;;;2.60;99.90;;;;;;5054132;28;20025;-80
2022/04/28 05:18:29;;;;;;;8.35;4.00;;;2.60;99.90;;;;;;5055916;28;20029;-80
2022/04/28 05:20:55;;;;;;;6.80;3.85;;;2.70;99.90;;;;;;5056392;28;20055;-80
2022/04/28 05:23:21;;;;;;;7.47;4.10;;;2.70;99.90;;;;;;5055840;28;20043;-80
2022/04/28 05:25:47;;;;;;;6.07;3.85;;;2.70;99.90;;;;;;5055665;28;20078;-80
2022/04/28 05:28:13;;;;;;;6.93;4.25;;;2.70;99.90;;;;;;5055616;28;20434;-80
2022/04/28 05:30:39;;;;;;;8.25;4.35;;;2.80;99.90;;;;;;5055991;28;20017;-80
2022/04/28 05:33:05;;;;;;;7.25;4.40;;;2.80;99.90;;;;;;5056518;28;20112;-80
2022/04/28 05:35:34;;;;;;;7.78;4.18;;;2.80;99.90;;;;;;5056086;28;20370;-80
2022/04/28 05:37:59;;;;;;;12.07;5.00;;;2.90;99.90;;;;;;5056397;28;20493;-80
2022/04/28 05:40:25;;;;;;;11.82;5.68;;;2.90;99.90;;;;;;5056163;28;20025;-80
2022/04/28 05:45:47;;;;;;;14.15;7.15;;;3.10;99.90;;;;;;5055326;28;20035;-80
2022/04/28 05:48:14;;;;;;;25.13;8.82;;;3.20;99.90;;;;;;5055457;28;20025;-80
2022/04/28 05:50:41;;;;;;;23.92;10.02;;;3.20;99.90;;;;;;5055920;28;20024;-80
2022/04/28 05:53:08;;;;;;;23.13;10.68;;;3.20;99.90;;;;;;5053504;28;20535;-80
2022/04/28 05:55:34;;;;;;;23.08;11.13;;;3.20;99.90;;;;;;5053659;28;20104;-80
2022/04/28 05:58:00;;;;;;;22.25;11.23;;;3.10;99.90;;;;;;5055345;28;20492;-81
2022/04/28 06:00:27;;;;;;;19.65;9.88;;;3.20;99.90;;;;;;5058079;28;20024;-80
2022/04/28 06:02:53;;;;;;;17.50;8.48;;;3.20;99.90;;;;;;5057891;28;20433;-80
2022/04/28 06:05:19;;;;;;;15.27;7.97;;;3.30;99.90;;;;;;5054632;28;20084;-80
2022/04/28 06:07:45;;;;;;;12.60;7.00;;;3.30;99.90;;;;;;5054940;28;20075;-80
2022/04/28 06:10:13;;;;;;;11.80;6.53;;;3.40;99.90;;;;;;5054861;28;20066;-81
2022/04/28 06:12:39;;;;;;;12.57;7.45;;;3.50;99.90;;;;;;5053265;28;20036;-81
2022/04/28 06:15:06;;;;;;;10.77;6.10;;;3.50;99.90;;;;;;5054556;28;20024;-81
2022/04/28 06:17:32;;;;;;;13.05;7.05;;;3.60;99.90;;;;;;5053796;28;20055;-81
2022/04/28 06:19:57;;;;;;;16.83;7.45;;;3.70;99.90;;;;;;5055264;28;20025;-80
2022/04/28 06:22:23;;;;;;;15.55;7.53;;;3.70;99.90;;;;;;5055623;28;20025;-81
2022/04/28 06:24:56;;;;;;;16.50;9.02;;;3.70;99.90;;;;;;5056074;28;20556;-80
2022/04/28 06:27:22;;;;;;;24.60;12.55;;;3.80;99.90;;;;;;5057127;28;20063;-81
2022/04/28 06:29:49;;;;;;;25.27;13.70;;;3.80;99.90;;;;;;5076045;28;20035;-81
2022/04/28 06:32:18;;;;;;;28.00;13.35;;;3.90;99.90;;;;;;5078160;28;20024;-81
2022/04/28 06:34:44;;;;;;;22.10;12.35;;;3.90;99.90;;;;;;5078246;28;20009;-81
2022/04/28 06:37:10;;;;;;;26.70;13.20;;;4.00;99.90;;;;;;5077983;28;20027;-81
2022/04/28 06:39:36;;;;;;;24.63;13.20;;;4.00;99.90;;;;;;5078386;28;20032;-80
2022/04/28 06:42:03;;;;;;;32.83;16.45;;;4.00;99.90;;;;;;5077900;28;20049;-81
2022/04/28 06:44:28;;;;;;;24.98;13.75;;;4.10;99.90;;;;;;5072816;28;20080;-81
2022/04/28 06:46:54;;;;;;;32.92;17.08;;;4.10;99.90;;;;;;5078643;28;20033;-81
2022/04/28 06:49:20;;;;;;;28.88;16.27;;;4.10;99.90;;;;;;5078003;28;20036;-80
2022/04/28 06:51:46;;;;;;;35.85;18.67;;;4.10;99.90;;;;;;5078461;28;20088;-81
2022/04/28 06:54:12;;;;;;;34.05;17.48;;;4.20;99.90;;;;;;5073044;28;20022;-81
2022/04/28 06:56:38;;;;;;;30.25;16.33;;;4.30;99.90;;;;;;5068715;28;20032;-81
2022/04/28 06:59:04;;;;;;;28.63;13.85;;;4.30;99.90;;;;;;5068069;28;20037;-81
2022/04/28 07:01:30;;;;;;;31.83;16.52;;;4.50;99.90;;;;;;5068018;28;20017;-81
2022/04/28 07:03:56;;;;;;;33.58;16.65;;;4.60;99.90;;;;;;5066897;28;20044;-81
2022/04/28 07:06:21;;;;;;;27.55;14.13;;;4.80;99.90;;;;;;5066696;28;20416;-81
2022/04/28 07:08:47;;;;;;;28.80;16.02;;;4.90;99.90;;;;;;5066853;28;20025;-81
2022/04/28 07:11:13;;;;;;;24.17;14.10;;;5.10;99.90;;;;;;5067059;28;20025;-81
2022/04/28 07:13:38;;;;;;;25.20;14.00;;;5.30;99.90;;;;;;5066495;28;20023;-81
2022/04/28 07:16:05;;;;;;;22.75;13.13;;;5.40;99.90;;;;;;5066501;28;20053;-81
2022/04/28 07:18:31;;;;;;;24.52;13.95;;;5.50;99.90;;;;;;5066246;28;20029;-80
2022/04/28 07:20:59;;;;;;;20.92;11.48;;;5.70;99.90;;;;;;5065808;28;20478;-80
2022/04/28 07:23:25;;;;;;;19.88;10.10;;;5.90;99.90;;;;;;5065751;28;20056;-81
2022/04/28 07:25:51;;;;;;;18.30;10.48;;;6.10;99.90;;;;;;5065598;28;20024;-81
2022/04/28 07:28:16;;;;;;;15.93;9.75;;;6.30;99.90;;;;;;5065753;28;20021;-81
2022/04/28 07:30:42;;;;;;;14.23;9.15;;;6.50;99.90;;;;;;5065504;28;20092;-81
2022/04/28 07:33:08;;;;;;;14.90;8.27;;;6.60;99.90;;;;;;5064832;28;20021;-81
2022/04/28 07:35:34;;;;;;;17.20;9.18;;;6.80;99.90;;;;;;5064457;28;20028;-81
2022/04/28 07:38:00;;;;;;;15.20;8.48;;;6.90;99.90;;;;;;5063785;28;20021;-81
2022/04/28 07:40:26;;;;;;;11.05;7.00;;;7.10;99.90;;;;;;5062814;28;20037;-81
2022/04/28 07:42:52;;;;;;;10.32;7.20;;;7.20;99.90;;;;;;5065201;28;20048;-81
2022/04/28 07:45:17;;;;;;;10.18;6.40;;;7.40;99.90;;;;;;5063013;28;20035;-81
2022/04/28 07:47:43;;;;;;;11.25;6.75;;;7.50;99.90;;;;;;5062726;28;20385;-81
2022/04/28 07:50:10;;;;;;;11.95;7.97;;;7.60;99.90;;;;;;5063702;28;20025;-81
2022/04/28 07:52:37;;;;;;;11.75;6.97;;;7.80;99.90;;;;;;5066977;28;20032;-81
2022/04/28 07:55:04;;;;;;;11.45;6.88;;;7.90;99.90;;;;;;5066007;28;20031;-81
2022/04/28 07:57:29;;;;;;;11.60;7.05;;;8.00;99.90;;;;;;5065448;28;20025;-81
2022/04/28 07:59:55;;;;;;;17.13;6.70;;;8.30;99.90;;;;;;5066533;28;20037;-81
2022/04/28 08:02:21;;;;;;;8.23;5.90;;;8.40;99.90;;;;;;5065439;28;20021;-81
2022/04/28 08:04:47;;;;;;;8.43;4.88;;;8.60;99.90;;;;;;5065900;28;20037;-81
2022/04/28 08:07:12;;;;;;;7.88;4.70;;;8.80;99.90;;;;;;5065059;28;20087;-81
2022/04/28 08:09:38;;;;;;;8.25;4.63;;;8.90;99.90;;;;;;5065939;28;20021;-81
2022/04/28 08:12:05;;;;;;;7.10;4.60;;;9.10;99.90;;;;;;5065855;28;20047;-81
2022/04/28 08:14:32;;;;;;;8.43;5.43;;;9.30;99.90;;;;;;5063938;28;20025;-81
2022/04/28 08:16:58;;;;;;;8.85;5.55;;;9.40;99.90;;;;;;5063716;28;20039;-81
2022/04/28 08:19:24;;;;;;;10.00;5.50;;;9.50;99.90;;;;;;5063901;28;20489;-81
2022/04/28 08:21:50;;;;;;;10.63;5.72;;;9.70;99.90;;;;;;5063802;28;20029;-81
2022/04/28 08:24:16;;;;;;;8.85;5.43;;;9.80;99.90;;;;;;5061865;28;20032;-81
2022/04/28 08:26:42;;;;;;;8.85;5.38;;;9.90;99.90;;;;;;5063171;28;20048;-81
2022/04/28 08:29:08;;;;;;;8.68;5.43;;;10.20;99.90;;;;;;5063292;28;20023;-81
2022/04/28 08:31:34;;;;;;;10.63;5.85;;;10.30;99.90;;;;;;5061385;28;20025;-81
2022/04/28 08:34:00;;;;;;;11.30;7.30;;;10.50;99.90;;;;;;5062297;28;20090;-81
2022/04/28 08:36:26;;;;;;;8.25;4.25;;;10.70;99.90;;;;;;5062701;28;20025;-81
2022/04/28 08:38:52;;;;;;;7.85;3.58;;;10.80;99.90;;;;;;5060232;28;20029;-81
2022/04/28 08:41:47;;;;;;;4.40;3.30;;;11.00;99.90;;;;;;5062418;28;20025;-81
2022/04/28 08:44:19;;;;;;;4.22;3.20;;;11.20;99.90;;;;;;5053022;28;20033;-81
2022/04/28 08:46:52;;;;;;;4.85;3.20;;;11.30;99.50;;;;;;5062328;28;20358;-81
2022/04/28 08:49:20;;;;;;;4.97;2.50;;;11.50;99.00;;;;;;5062484;28;20040;-80
2022/04/28 08:51:46;;;;;;;5.68;2.50;;;11.60;98.30;;;;;;5061311;28;20632;-80
2022/04/28 08:54:13;;;;;;;3.72;2.28;;;11.80;97.50;;;;;;5061828;28;20025;-81
2022/04/28 08:56:39;;;;;;;4.05;2.67;;;11.90;97.00;;;;;;5062073;28;20408;-81
2022/04/28 08:59:06;;;;;;;3.70;2.50;;;12.00;97.90;;;;;;5062472;28;20028;-81
2022/04/28 09:01:32;;;;;;;5.72;2.75;;;12.10;96.50;;;;;;5063129;28;20053;-80
2022/04/28 09:04:00;;;;;;;3.40;2.03;;;12.20;94.60;;;;;;5055893;28;20057;-81
2022/04/28 09:06:34;;;;;;;2.85;2.00;;;12.30;93.40;;;;;;5056221;28;20029;-80
2022/04/28 09:09:13;;;;;;;2.92;1.70;;;12.40;92.80;;;;;;5055705;28;20025;-80
2022/04/28 09:11:41;;;;;;;3.78;1.70;;;12.70;91.40;;;;;;5054288;28;20055;-80
2022/04/28 09:14:17;;;;;;;2.50;1.52;;;12.80;85.90;;;;;;5055108;28;20510;-80
2022/04/28 09:16:49;;;;;;;3.13;1.65;;;12.90;81.30;;;;;;5055125;28;20075;-80
2022/04/28 09:19:24;;;;;;;3.65;1.90;;;13.10;77.10;;;;;;5055023;28;20048;-80
2022/04/28 09:21:53;;;;;;;2.50;1.60;;;13.20;80.00;;;;;;5055136;28;20068;-80
2022/04/28 09:24:19;;;;;;;2.53;1.40;;;13.30;77.50;;;;;;5054721;28;20029;-80
2022/04/28 09:26:47;;;;;;;5.18;2.00;;;13.50;75.50;;;;;;5053392;28;20032;-80
2022/04/28 09:29:15;;;;;;;4.20;1.67;;;13.60;75.00;;;;;;5060347;28;20025;-81
2022/04/28 09:31:43;;;;;;;2.38;1.65;;;13.60;72.60;;;;;;5067592;28;20100;-81
2022/04/28 09:34:11;;;;;;;2.30;1.60;;;13.70;73.90;;;;;;5067390;28;20025;-81
2022/04/28 09:36:38;;;;;;;5.03;1.90;;;13.90;75.00;;;;;;5069028;28;20052;-80
2022/04/28 09:39:06;;;;;;;4.25;1.67;;;14.00;73.40;;;;;;5069475;28;20017;-80
2022/04/28 09:44:20;;;;;;;2.30;1.50;;;14.10;70.60;;;;;;5069723;28;20028;-81
2022/04/28 09:46:47;;;;;;;2.95;1.38;;;14.20;69.50;;;;;;5067332;28;20413;-81
2022/04/28 09:49:20;;;;;;;3.55;1.50;;;14.30;70.70;;;;;;5062617;28;20021;-80
2022/04/28 09:51:46;;;;;;;2.53;1.40;;;14.40;66.10;;;;;;5056523;28;20021;-80
2022/04/28 09:54:14;;;;;;;2.78;1.75;;;14.60;70.40;;;;;;5057087;28;20139;-81
2022/04/28 09:56:42;;;;;;;2.95;1.25;;;14.70;72.60;;;;;;5055395;28;20029;-80
2022/04/28 09:59:11;;;;;;;3.20;1.70;;;14.90;69.30;;;;;;5053828;28;20032;-81
2022/04/28 10:01:38;;;;;;;3.60;1.35;;;15.00;65.60;;;;;;5054176;28;20029;-80
2022/04/28 10:04:05;;;;;;;2.60;1.40;;;15.00;66.50;;;;;;5053608;28;20025;-80
2022/04/28 10:06:33;;;;;;;4.85;1.25;;;15.20;66.80;;;;;;5053889;28;20495;-81
2022/04/28 10:09:05;;;;;;;2.13;1.27;;;15.20;60.50;;;;;;5054059;28;20036;-80
2022/04/28 10:11:31;;;;;;;1.88;1.13;;;15.20;63.70;;;;;;5052841;28;20020;-80
2022/04/28 10:13:59;;;;;;;3.28;1.20;;;15.20;61.20;;;;;;5053790;28;20032;-80
2022/04/28 10:16:26;;;;;;;2.55;1.40;;;15.30;60.10;;;;;;5052551;28;20388;-80
2022/04/28 10:19:11;;;;;;;3.05;1.25;;;15.30;60.00;;;;;;5053800;28;20044;-80
2022/04/28 10:22:01;;;;;;;2.70;1.48;;;15.50;60.10;;;;;;5054207;28;20028;-80
2022/04/28 10:33:01;;;;;;;2.33;1.30;;;15.80;56.60;;;;;;5054374;28;20028;-80
2022/04/28 10:35:43;;;;;;;2.33;1.38;;;15.90;57.20;;;;;;5053971;28;20477;-80
2022/04/28 10:38:14;;;;;;;2.15;1.10;;;15.90;58.90;;;;;;5052388;28;20059;-80
2022/04/28 10:40:56;;;;;;;;;;;16.00;56.40;;;;;;5054033;28;20063;-80
2022/04/28 10:43:26;;;;;;;2.70;1.13;;;16.10;57.90;;;;;;5052413;28;19905;-80
2022/04/28 10:45:54;;;;;;;2.78;1.08;;;16.20;55.40;;;;;;5054089;28;20021;-80
2022/04/28 10:48:47;;;;;;;2.92;1.48;;;16.20;55.80;;;;;;5052384;28;20385;-80
2022/04/28 10:51:16;;;;;;;3.35;1.30;;;16.10;54.70;;;;;;5050805;28;20032;-80
2022/04/28 10:54:03;;;;;;;2.58;1.20;;;16.00;56.70;;;;;;5052361;28;20435;-80
2022/04/28 10:56:50;;;;;;;2.85;1.00;;;16.10;55.30;;;;;;5052197;28;20025;-80
2022/04/28 10:59:40;;;;;;;2.67;1.30;;;16.30;54.80;;;;;;5046984;28;20124;-80
2022/04/28 11:02:11;;;;;;;2.55;1.33;;;16.40;54.30;;;;;;5054218;28;20021;-80
2022/04/28 11:04:40;;;;;;;2.55;1.20;;;16.30;55.20;;;;;;5053815;28;20396;-80
2022/04/28 11:07:09;;;;;;;5.38;1.30;;;16.30;56.30;;;;;;5052943;28;20038;-81
2022/04/28 11:09:38;;;;;;;4.47;1.55;;;16.50;55.80;;;;;;5054121;28;20021;-80
2022/04/28 11:12:11;;;;;;;2.03;1.10;;;16.60;57.70;;;;;;5052604;28;20492;-81
2022/04/28 11:14:59;;;;;;;1.92;1.35;;;16.60;56.00;;;;;;5053720;28;20512;-80
2022/04/28 11:17:28;;;;;;;2.25;1.40;;;16.70;57.80;;;;;;5053633;28;20047;-81
2022/04/28 11:19:54;;;;;;;2.28;1.33;;;16.90;56.80;;;;;;5052180;28;20056;-83
2022/04/28 11:22:20;;;;;;;3.63;1.70;;;17.10;58.20;;;;;;5053996;28;20436;-84
2022/04/28 11:24:47;;;;;;;1.98;1.30;;;17.20;57.70;;;;;;5057749;28;20078;-83
2022/04/28 11:27:24;;;;;;;4.40;1.42;;;17.30;51.70;;;;;;5058272;28;20032;-83
2022/04/28 11:29:51;;;;;;;4.03;1.63;;;17.30;54.60;;;;;;5057182;28;20440;-84
2022/04/28 11:32:17;;;;;;;2.25;1.30;;;17.40;54.70;;;;;;5056757;28;20039;-84
2022/04/28 11:34:45;;;;;;;4.00;1.50;;;17.30;52.60;;;;;;5056538;28;20538;-84
2022/04/28 11:37:22;;;;;;;3.13;1.38;;;17.20;52.00;;;;;;5058082;28;20074;-84
2022/04/28 11:39:50;;;;;;;4.72;1.65;;;17.20;52.50;;;;;;5056562;28;20058;-83
2022/04/28 11:42:17;;;;;;;3.00;1.48;;;17.30;53.60;;;;;;5056686;28;20032;-83
2022/04/28 11:44:47;;;;;;;3.25;1.17;;;17.40;52.80;;;;;;5056566;28;20029;-83
2022/04/28 11:47:13;;;;;;;2.63;1.38;;;17.50;52.30;;;;;;5058471;28;20025;-83
2022/04/28 11:49:40;;;;;;;6.38;1.70;;;17.50;54.10;;;;;;5059088;28;20021;-83
2022/04/28 11:52:18;;;;;;;5.78;1.80;;;17.60;54.20;;;;;;5059317;28;20370;-84
2022/04/28 11:54:44;;;;;;;3.35;1.80;;;17.70;52.40;;;;;;5059943;28;20025;-84
2022/04/28 11:57:12;;;;;;;3.42;1.60;;;17.80;51.80;;;;;;5058116;28;20056;-85
2022/04/28 11:59:39;;;;;;;3.28;1.60;;;17.90;53.80;;;;;;5057716;28;20392;-85
2022/04/28 12:02:21;;;;;;;4.25;1.40;;;18.00;50.70;;;;;;5059759;28;20029;-85
2022/04/28 12:04:47;;;;;;;;;;;18.00;54.30;;;;;;5057907;28;20366;-85
2022/04/28 12:07:23;;;;;;;;;;;18.00;50.80;;;;;;5060151;28;19959;-85
2022/04/28 12:15:20;;;;;;;;;;;18.10;50.90;;;;;;5058826;28;19912;-84
2022/04/28 12:20:57;;;;;;;;;;;18.20;49.00;;;;;;5059807;28;19955;-84
2022/04/28 12:23:42;;;;;;;;;;;18.30;50.90;;;;;;5057067;28;19905;-84
2022/04/28 12:26:08;;;;;;;;;;;18.40;50.10;;;;;;5059647;28;20024;-84
2022/04/28 12:28:35;;;;;;;;;;;18.40;50.30;;;;;;5057750;28;20292;-83
2022/04/28 12:31:02;;;;;;;;;;;18.30;49.30;;;;;;5057545;28;19940;-84
2022/04/28 12:33:28;;;;;;;;;;;18.10;49.10;;;;;;5056915;28;19966;-84
2022/04/28 12:35:57;;;;;;;;;;;18.00;48.40;;;;;;5058850;28;19911;-84
2022/04/28 12:38:24;;;;;;;;;;;18.10;48.00;;;;;;5056824;28;19905;-84
2022/04/28 12:40:49;;;;;;;;;;;18.10;49.80;;;;;;5056281;28;19913;-84
2022/04/28 12:43:34;;;;;;;;;;;18.20;49.90;;;;;;5057678;28;19905;-84
2022/04/28 12:45:59;;;;;;;;;;;18.40;51.10;;;;;;5056653;28;20364;-85
2022/04/28 12:48:27;;;;;;;;;;;18.40;48.60;;;;;;5056640;28;19911;-84
2022/04/28 12:51:11;;;;;;;;;;;18.40;49.60;;;;;;5056326;28;19905;-84
2022/04/28 12:53:37;;;;;;;;;;;18.60;51.50;;;;;;5056033;28;19912;-84
2022/04/28 12:56:11;;;;;;;;;;;18.80;48.50;;;;;;5056550;28;19905;-84
2022/04/28 12:58:37;;;;;;;;;;;18.90;49.50;;;;;;5058654;28;19915;-83
2022/04/28 13:01:03;;;;;;;;;;;18.90;48.80;;;;;;5058424;28;19931;-83
2022/04/28 13:03:29;;;;;;;;;;;18.60;48.20;;;;;;5058215;28;19905;-84
2022/04/28 13:05:55;;;;;;;;;;;18.50;49.20;;;;;;5056337;28;19912;-82
2022/04/28 13:08:20;;;;;;;;;;;18.50;48.50;;;;;;5057624;28;20344;-83
2022/04/28 13:10:46;;;;;;;;;;;18.50;48.40;;;;;;5055994;28;19908;-84
2022/04/28 13:13:11;;;;;;;;;;;18.50;47.20;;;;;;5055956;28;19911;-83
2022/04/28 13:15:37;;;;;;;;;;;18.20;46.20;;;;;;5057180;28;19947;-84
2022/04/28 13:18:03;;;;;;;;;;;17.90;46.90;;;;;;5058759;28;19905;-84
2022/04/28 13:20:28;;;;;;;;;;;18.00;47.20;;;;;;5056198;28;19928;-84
2022/04/28 13:22:54;;;;;;;;;;;18.10;48.00;;;;;;5056774;28;19905;-84
2022/04/28 13:25:20;;;;;;;;;;;18.10;47.00;;;;;;5053829;28;19915;-83
2022/04/28 13:27:46;;;;;;;;;;;18.10;48.10;;;;;;5054000;28;19995;-83
2022/04/28 13:30:13;;;;;;;;;;;18.10;47.70;;;;;;5055225;28;20399;-84
2022/04/28 13:32:39;;;;;;;;;;;18.10;48.00;;;;;;5055514;28;19905;-84
2022/04/28 13:35:05;;;;;;;;;;;18.20;48.10;;;;;;5053731;28;20383;-84